sensor_id;sensor_type;location;lat;lon;timestamp;P1;durP1;ratioP1;P2;durP2;ratioP2
14526;SDS011;7350;51.208;4.238;2023-02-12T00:01:09;4.78;;;4.32;;
14526;SDS011;7350;51.208;4.238;2023-02-12T00:03:36;4.65;;;4.25;;
14526;SDS011;7350;51.208;4.238;2023-02-12T00:06:04;4.45;;;4.05;;
14526;SDS011;7350;51.208;4.238;2023-02-12T00:08:32;4.32;;;3.83;;
14526;SDS011;7350;51.208;4.238;2023-02-12T00:11:00;4.13;;;3.72;;
14526;SDS011;7350;51.208;4.238;2023-02-12T00:13:33;4.57;;;3.80;;
14526;SDS011;7350;51.208;4.238;2023-02-12T00:16:02;4.30;;;3.78;;
14526;SDS011;7350;51.208;4.238;2023-02-12T00:18:30;4.30;;;3.80;;
14526;SDS011;7350;51.208;4.238;2023-02-12T00:20:57;3.97;;;3.67;;
14526;SDS011;7350;51.208;4.238;2023-02-12T00:23:25;3.97;;;3.60;;
14526;SDS011;7350;51.208;4.238;2023-02-12T00:25:52;4.05;;;3.70;;
14526;SDS011;7350;51.208;4.238;2023-02-12T00:28:22;4.00;;;3.60;;
14526;SDS011;7350;51.208;4.238;2023-02-12T00:30:49;3.75;;;3.45;;
14526;SDS011;7350;51.208;4.238;2023-02-12T00:33:16;4.10;;;3.70;;
14526;SDS011;7350;51.208;4.238;2023-02-12T00:35:43;3.63;;;3.30;;
14526;SDS011;7350;51.208;4.238;2023-02-12T00:38:10;3.75;;;3.20;;
14526;SDS011;7350;51.208;4.238;2023-02-12T00:40:37;3.60;;;3.30;;
14526;SDS011;7350;51.208;4.238;2023-02-12T00:43:04;3.83;;;3.53;;
14526;SDS011;7350;51.208;4.238;2023-02-12T00:45:32;4.10;;;3.70;;
14526;SDS011;7350;51.208;4.238;2023-02-12T00:48:02;3.80;;;3.50;;
14526;SDS011;7350;51.208;4.238;2023-02-12T00:50:29;4.55;;;3.10;;
14526;SDS011;7350;51.208;4.238;2023-02-12T00:52:56;4.35;;;3.35;;
14526;SDS011;7350;51.208;4.238;2023-02-12T00:55:23;3.80;;;3.40;;
14526;SDS011;7350;51.208;4.238;2023-02-12T00:57:50;4.22;;;3.83;;
14526;SDS011;7350;51.208;4.238;2023-02-12T01:00:17;3.45;;;3.10;;
14526;SDS011;7350;51.208;4.238;2023-02-12T01:02:45;3.92;;;3.13;;
14526;SDS011;7350;51.208;4.238;2023-02-12T01:05:12;3.33;;;3.03;;
14526;SDS011;7350;51.208;4.238;2023-02-12T01:07:39;3.42;;;3.13;;
14526;SDS011;7350;51.208;4.238;2023-02-12T01:10:07;3.45;;;3.15;;
14526;SDS011;7350;51.208;4.238;2023-02-12T01:12:34;3.60;;;3.30;;
14526;SDS011;7350;51.208;4.238;2023-02-12T01:15:01;3.60;;;3.30;;
14526;SDS011;7350;51.208;4.238;2023-02-12T01:17:28;3.55;;;3.25;;
14526;SDS011;7350;51.208;4.238;2023-02-12T01:19:57;3.30;;;3.00;;
14526;SDS011;7350;51.208;4.238;2023-02-12T01:22:24;3.13;;;2.85;;
14526;SDS011;7350;51.208;4.238;2023-02-12T01:24:51;3.13;;;2.90;;
14526;SDS011;7350;51.208;4.238;2023-02-12T01:27:18;3.10;;;2.80;;
14526;SDS011;7350;51.208;4.238;2023-02-12T01:29:45;3.28;;;2.97;;
14526;SDS011;7350;51.208;4.238;2023-02-12T01:32:12;3.35;;;3.05;;
14526;SDS011;7350;51.208;4.238;2023-02-12T01:34:39;3.30;;;3.00;;
14526;SDS011;7350;51.208;4.238;2023-02-12T01:37:07;3.40;;;3.10;;
14526;SDS011;7350;51.208;4.238;2023-02-12T01:39:34;4.10;;;3.17;;
14526;SDS011;7350;51.208;4.238;2023-02-12T01:42:02;3.33;;;3.03;;
14526;SDS011;7350;51.208;4.238;2023-02-12T01:44:30;2.85;;;2.65;;
14526;SDS011;7350;51.208;4.238;2023-02-12T01:46:59;2.88;;;2.40;;
14526;SDS011;7350;51.208;4.238;2023-02-12T01:49:29;3.15;;;2.95;;
14526;SDS011;7350;51.208;4.238;2023-02-12T01:52:02;2.85;;;2.65;;
14526;SDS011;7350;51.208;4.238;2023-02-12T01:54:32;3.10;;;2.80;;
14526;SDS011;7350;51.208;4.238;2023-02-12T01:57:00;3.00;;;2.80;;
14526;SDS011;7350;51.208;4.238;2023-02-12T01:59:29;3.22;;;2.92;;
14526;SDS011;7350;51.208;4.238;2023-02-12T02:01:57;2.80;;;2.60;;
14526;SDS011;7350;51.208;4.238;2023-02-12T02:04:26;2.60;;;2.40;;
14526;SDS011;7350;51.208;4.238;2023-02-12T02:06:56;3.15;;;2.85;;
14526;SDS011;7350;51.208;4.238;2023-02-12T02:09:24;3.22;;;3.00;;
14526;SDS011;7350;51.208;4.238;2023-02-12T02:11:53;2.78;;;2.58;;
14526;SDS011;7350;51.208;4.238;2023-02-12T02:14:38;3.05;;;2.85;;
14526;SDS011;7350;51.208;4.238;2023-02-12T02:17:10;2.92;;;2.70;;
14526;SDS011;7350;51.208;4.238;2023-02-12T02:20:10;2.97;;;2.78;;
14526;SDS011;7350;51.208;4.238;2023-02-12T02:26:09;2.65;;;2.45;;
14526;SDS011;7350;51.208;4.238;2023-02-12T02:29:06;2.92;;;2.50;;
14526;SDS011;7350;51.208;4.238;2023-02-12T02:32:12;2.83;;;2.53;;
14526;SDS011;7350;51.208;4.238;2023-02-12T02:34:42;2.95;;;2.67;;
14526;SDS011;7350;51.208;4.238;2023-02-12T02:37:16;2.92;;;2.50;;
14526;SDS011;7350;51.208;4.238;2023-02-12T02:39:49;3.13;;;2.83;;
14526;SDS011;7350;51.208;4.238;2023-02-12T02:42:22;3.17;;;2.50;;
14526;SDS011;7350;51.208;4.238;2023-02-12T02:44:53;2.83;;;2.58;;
14526;SDS011;7350;51.208;4.238;2023-02-12T02:47:25;3.28;;;2.78;;
14526;SDS011;7350;51.208;4.238;2023-02-12T02:49:58;2.78;;;2.40;;
14526;SDS011;7350;51.208;4.238;2023-02-12T02:52:30;2.97;;;2.70;;
14526;SDS011;7350;51.208;4.238;2023-02-12T02:55:01;2.63;;;2.42;;
14526;SDS011;7350;51.208;4.238;2023-02-12T02:57:33;2.63;;;2.40;;
14526;SDS011;7350;51.208;4.238;2023-02-12T03:00:04;2.50;;;2.30;;
14526;SDS011;7350;51.208;4.238;2023-02-12T03:02:37;2.83;;;2.63;;
14526;SDS011;7350;51.208;4.238;2023-02-12T03:05:08;3.20;;;2.95;;
14526;SDS011;7350;51.208;4.238;2023-02-12T03:07:39;2.80;;;2.60;;
14526;SDS011;7350;51.208;4.238;2023-02-12T03:10:12;2.78;;;2.50;;
14526;SDS011;7350;51.208;4.238;2023-02-12T03:12:43;2.95;;;2.55;;
14526;SDS011;7350;51.208;4.238;2023-02-12T03:15:17;2.90;;;2.70;;
14526;SDS011;7350;51.208;4.238;2023-02-12T03:17:50;2.40;;;2.20;;
14526;SDS011;7350;51.208;4.238;2023-02-12T03:20:18;2.80;;;2.60;;
14526;SDS011;7350;51.208;4.238;2023-02-12T03:22:48;3.10;;;2.53;;
14526;SDS011;7350;51.208;4.238;2023-02-12T03:25:19;2.50;;;2.30;;
14526;SDS011;7350;51.208;4.238;2023-02-12T03:27:51;2.47;;;2.28;;
14526;SDS011;7350;51.208;4.238;2023-02-12T03:30:30;2.63;;;2.42;;
14526;SDS011;7350;51.208;4.238;2023-02-12T03:33:06;2.90;;;2.70;;
14526;SDS011;7350;51.208;4.238;2023-02-12T03:35:42;2.60;;;2.40;;
14526;SDS011;7350;51.208;4.238;2023-02-12T03:38:18;2.78;;;2.30;;
14526;SDS011;7350;51.208;4.238;2023-02-12T03:40:52;2.67;;;2.20;;
14526;SDS011;7350;51.208;4.238;2023-02-12T03:43:24;2.63;;;2.42;;
14526;SDS011;7350;51.208;4.238;2023-02-12T03:45:56;2.78;;;2.58;;
14526;SDS011;7350;51.208;4.238;2023-02-12T03:48:29;2.50;;;2.30;;
14526;SDS011;7350;51.208;4.238;2023-02-12T03:51:02;2.33;;;2.13;;
14526;SDS011;7350;51.208;4.238;2023-02-12T03:53:33;2.50;;;2.30;;
14526;SDS011;7350;51.208;4.238;2023-02-12T03:56:01;2.30;;;2.13;;
14526;SDS011;7350;51.208;4.238;2023-02-12T03:58:31;2.95;;;2.30;;
14526;SDS011;7350;51.208;4.238;2023-02-12T04:01:00;2.20;;;2.00;;
14526;SDS011;7350;51.208;4.238;2023-02-12T04:03:30;2.35;;;2.15;;
14526;SDS011;7350;51.208;4.238;2023-02-12T04:05:57;2.47;;;2.28;;
14526;SDS011;7350;51.208;4.238;2023-02-12T04:08:24;3.30;;;2.65;;
14526;SDS011;7350;51.208;4.238;2023-02-12T04:10:55;3.20;;;2.40;;
14526;SDS011;7350;51.208;4.238;2023-02-12T04:13:32;2.25;;;2.05;;
14526;SDS011;7350;51.208;4.238;2023-02-12T04:16:09;2.35;;;2.15;;
14526;SDS011;7350;51.208;4.238;2023-02-12T04:18:46;3.22;;;2.40;;
14526;SDS011;7350;51.208;4.238;2023-02-12T04:21:17;2.30;;;2.10;;
14526;SDS011;7350;51.208;4.238;2023-02-12T04:23:56;2.65;;;2.30;;
14526;SDS011;7350;51.208;4.238;2023-02-12T04:26:33;2.65;;;2.42;;
14526;SDS011;7350;51.208;4.238;2023-02-12T04:29:07;2.35;;;2.00;;
14526;SDS011;7350;51.208;4.238;2023-02-12T04:31:43;2.53;;;2.15;;
14526;SDS011;7350;51.208;4.238;2023-02-12T04:34:17;3.28;;;2.40;;
14526;SDS011;7350;51.208;4.238;2023-02-12T04:36:52;2.15;;;2.03;;
14526;SDS011;7350;51.208;4.238;2023-02-12T04:39:24;2.40;;;2.20;;
14526;SDS011;7350;51.208;4.238;2023-02-12T04:41:53;2.33;;;2.13;;
14526;SDS011;7350;51.208;4.238;2023-02-12T04:44:25;2.00;;;1.90;;
14526;SDS011;7350;51.208;4.238;2023-02-12T04:46:53;2.25;;;2.05;;
14526;SDS011;7350;51.208;4.238;2023-02-12T04:49:21;2.30;;;2.10;;
14526;SDS011;7350;51.208;4.238;2023-02-12T04:51:49;2.40;;;2.20;;
14526;SDS011;7350;51.208;4.238;2023-02-12T04:54:17;2.58;;;2.00;;
14526;SDS011;7350;51.208;4.238;2023-02-12T04:56:45;2.78;;;1.90;;
14526;SDS011;7350;51.208;4.238;2023-02-12T04:59:13;2.08;;;1.90;;
14526;SDS011;7350;51.208;4.238;2023-02-12T05:01:40;2.08;;;1.88;;
14526;SDS011;7350;51.208;4.238;2023-02-12T05:04:09;2.30;;;1.95;;
14526;SDS011;7350;51.208;4.238;2023-02-12T05:06:39;3.42;;;2.15;;
14526;SDS011;7350;51.208;4.238;2023-02-12T05:09:07;2.53;;;2.20;;
14526;SDS011;7350;51.208;4.238;2023-02-12T05:11:36;2.30;;;2.10;;
14526;SDS011;7350;51.208;4.238;2023-02-12T05:14:03;2.08;;;1.98;;
14526;SDS011;7350;51.208;4.238;2023-02-12T05:16:30;2.30;;;2.10;;
14526;SDS011;7350;51.208;4.238;2023-02-12T05:18:57;2.25;;;2.05;;
14526;SDS011;7350;51.208;4.238;2023-02-12T05:21:24;2.15;;;1.95;;
14526;SDS011;7350;51.208;4.238;2023-02-12T05:23:52;2.42;;;2.08;;
14526;SDS011;7350;51.208;4.238;2023-02-12T05:26:20;2.30;;;2.00;;
14526;SDS011;7350;51.208;4.238;2023-02-12T05:28:47;2.45;;;2.00;;
14526;SDS011;7350;51.208;4.238;2023-02-12T05:31:15;3.17;;;1.90;;
14526;SDS011;7350;51.208;4.238;2023-02-12T05:33:44;2.38;;;2.17;;
14526;SDS011;7350;51.208;4.238;2023-02-12T05:36:14;2.35;;;1.80;;
14526;SDS011;7350;51.208;4.238;2023-02-12T05:38:43;3.33;;;2.05;;
14526;SDS011;7350;51.208;4.238;2023-02-12T05:41:12;2.30;;;2.08;;
14526;SDS011;7350;51.208;4.238;2023-02-12T05:43:40;2.97;;;2.33;;
14526;SDS011;7350;51.208;4.238;2023-02-12T05:46:08;4.57;;;2.50;;
14526;SDS011;7350;51.208;4.238;2023-02-12T05:48:35;2.83;;;2.38;;
14526;SDS011;7350;51.208;4.238;2023-02-12T05:51:03;2.65;;;2.30;;
14526;SDS011;7350;51.208;4.238;2023-02-12T05:53:31;3.10;;;2.40;;
14526;SDS011;7350;51.208;4.238;2023-02-12T05:56:08;2.88;;;2.13;;
14526;SDS011;7350;51.208;4.238;2023-02-12T05:58:37;2.78;;;2.20;;
14526;SDS011;7350;51.208;4.238;2023-02-12T06:01:09;3.17;;;1.80;;
14526;SDS011;7350;51.208;4.238;2023-02-12T06:03:38;3.22;;;2.00;;
14526;SDS011;7350;51.208;4.238;2023-02-12T06:06:05;2.85;;;2.10;;
14526;SDS011;7350;51.208;4.238;2023-02-12T06:08:32;2.85;;;1.90;;
14526;SDS011;7350;51.208;4.238;2023-02-12T06:11:00;2.83;;;2.10;;
14526;SDS011;7350;51.208;4.238;2023-02-12T06:13:28;1.90;;;1.80;;
14526;SDS011;7350;51.208;4.238;2023-02-12T06:15:56;6.47;;;2.20;;
14526;SDS011;7350;51.208;4.238;2023-02-12T06:18:24;3.05;;;1.80;;
14526;SDS011;7350;51.208;4.238;2023-02-12T06:20:52;4.30;;;1.90;;
14526;SDS011;7350;51.208;4.238;2023-02-12T06:23:19;2.03;;;1.90;;
14526;SDS011;7350;51.208;4.238;2023-02-12T06:25:47;2.70;;;2.10;;
14526;SDS011;7350;51.208;4.238;2023-02-12T06:28:14;1.70;;;1.60;;
14526;SDS011;7350;51.208;4.238;2023-02-12T06:30:41;2.38;;;1.60;;
14526;SDS011;7350;51.208;4.238;2023-02-12T06:33:10;1.83;;;1.67;;
14526;SDS011;7350;51.208;4.238;2023-02-12T06:35:37;1.73;;;1.63;;
14526;SDS011;7350;51.208;4.238;2023-02-12T06:38:04;3.92;;;1.77;;
14526;SDS011;7350;51.208;4.238;2023-02-12T06:40:32;1.95;;;1.70;;
14526;SDS011;7350;51.208;4.238;2023-02-12T06:42:59;3.25;;;2.03;;
14526;SDS011;7350;51.208;4.238;2023-02-12T06:45:26;2.03;;;1.80;;
14526;SDS011;7350;51.208;4.238;2023-02-12T06:47:53;5.57;;;1.85;;
14526;SDS011;7350;51.208;4.238;2023-02-12T06:50:21;2.58;;;1.80;;
14526;SDS011;7350;51.208;4.238;2023-02-12T06:52:48;2.58;;;1.80;;
14526;SDS011;7350;51.208;4.238;2023-02-12T06:55:15;1.85;;;1.67;;
14526;SDS011;7350;51.208;4.238;2023-02-12T06:57:42;3.45;;;1.70;;
14526;SDS011;7350;51.208;4.238;2023-02-12T07:00:09;4.07;;;1.80;;
14526;SDS011;7350;51.208;4.238;2023-02-12T07:02:37;2.70;;;1.55;;
14526;SDS011;7350;51.208;4.238;2023-02-12T07:05:04;3.92;;;1.83;;
14526;SDS011;7350;51.208;4.238;2023-02-12T07:07:33;2.60;;;1.63;;
14526;SDS011;7350;51.208;4.238;2023-02-12T07:10:00;3.03;;;1.88;;
14526;SDS011;7350;51.208;4.238;2023-02-12T07:12:27;3.10;;;1.67;;
14526;SDS011;7350;51.208;4.238;2023-02-12T07:14:54;2.90;;;1.90;;
14526;SDS011;7350;51.208;4.238;2023-02-12T07:17:20;2.47;;;1.80;;
14526;SDS011;7350;51.208;4.238;2023-02-12T07:19:47;3.53;;;1.85;;
14526;SDS011;7350;51.208;4.238;2023-02-12T07:22:14;3.58;;;2.10;;
14526;SDS011;7350;51.208;4.238;2023-02-12T07:24:43;2.90;;;2.38;;
14526;SDS011;7350;51.208;4.238;2023-02-12T07:27:10;2.95;;;2.30;;
14526;SDS011;7350;51.208;4.238;2023-02-12T07:29:36;3.45;;;2.42;;
14526;SDS011;7350;51.208;4.238;2023-02-12T07:32:04;4.65;;;2.70;;
14526;SDS011;7350;51.208;4.238;2023-02-12T07:34:31;3.30;;;2.40;;
14526;SDS011;7350;51.208;4.238;2023-02-12T07:36:58;4.15;;;2.53;;
14526;SDS011;7350;51.208;4.238;2023-02-12T07:39:25;3.55;;;2.25;;
14526;SDS011;7350;51.208;4.238;2023-02-12T07:41:54;2.58;;;2.38;;
14526;SDS011;7350;51.208;4.238;2023-02-12T07:44:22;3.53;;;2.50;;
14526;SDS011;7350;51.208;4.238;2023-02-12T07:46:49;4.78;;;2.70;;
14526;SDS011;7350;51.208;4.238;2023-02-12T07:49:17;4.28;;;2.60;;
14526;SDS011;7350;51.208;4.238;2023-02-12T07:51:45;4.45;;;3.20;;
14526;SDS011;7350;51.208;4.238;2023-02-12T07:54:13;5.28;;;3.15;;
14526;SDS011;7350;51.208;4.238;2023-02-12T07:56:41;3.42;;;3.13;;
14526;SDS011;7350;51.208;4.238;2023-02-12T07:59:12;3.42;;;3.13;;
14526;SDS011;7350;51.208;4.238;2023-02-12T08:01:41;4.53;;;3.38;;
14526;SDS011;7350;51.208;4.238;2023-02-12T08:04:12;3.80;;;3.50;;
14526;SDS011;7350;51.208;4.238;2023-02-12T08:06:40;3.75;;;3.20;;
14526;SDS011;7350;51.208;4.238;2023-02-12T08:09:09;3.92;;;3.42;;
14526;SDS011;7350;51.208;4.238;2023-02-12T08:11:38;4.60;;;3.40;;
14526;SDS011;7350;51.208;4.238;2023-02-12T08:14:06;3.90;;;3.60;;
14526;SDS011;7350;51.208;4.238;2023-02-12T08:16:36;4.18;;;3.78;;
14526;SDS011;7350;51.208;4.238;2023-02-12T08:19:04;4.10;;;3.80;;
14526;SDS011;7350;51.208;4.238;2023-02-12T08:21:32;4.50;;;4.10;;
14526;SDS011;7350;51.208;4.238;2023-02-12T08:23:59;4.30;;;3.75;;
14526;SDS011;7350;51.208;4.238;2023-02-12T08:26:27;4.15;;;3.75;;
14526;SDS011;7350;51.208;4.238;2023-02-12T08:28:56;4.32;;;3.92;;
14526;SDS011;7350;51.208;4.238;2023-02-12T08:31:26;4.85;;;4.45;;
14526;SDS011;7350;51.208;4.238;2023-02-12T08:33:56;4.78;;;4.25;;
14526;SDS011;7350;51.208;4.238;2023-02-12T08:36:24;4.80;;;4.40;;
14526;SDS011;7350;51.208;4.238;2023-02-12T08:38:52;4.95;;;4.55;;
14526;SDS011;7350;51.208;4.238;2023-02-12T08:41:20;6.03;;;4.63;;
14526;SDS011;7350;51.208;4.238;2023-02-12T08:43:48;5.05;;;4.65;;
14526;SDS011;7350;51.208;4.238;2023-02-12T08:46:18;5.05;;;4.65;;
14526;SDS011;7350;51.208;4.238;2023-02-12T08:48:46;5.00;;;4.50;;
14526;SDS011;7350;51.208;4.238;2023-02-12T08:51:16;4.65;;;4.25;;
14526;SDS011;7350;51.208;4.238;2023-02-12T08:53:46;4.93;;;4.50;;
14526;SDS011;7350;51.208;4.238;2023-02-12T08:56:14;5.28;;;4.78;;
14526;SDS011;7350;51.208;4.238;2023-02-12T08:58:43;4.78;;;4.38;;
14526;SDS011;7350;51.208;4.238;2023-02-12T09:01:12;5.15;;;4.65;;
14526;SDS011;7350;51.208;4.238;2023-02-12T09:03:40;5.97;;;5.32;;
14526;SDS011;7350;51.208;4.238;2023-02-12T09:06:07;5.57;;;5.07;;
14526;SDS011;7350;51.208;4.238;2023-02-12T09:08:36;5.53;;;5.03;;
14526;SDS011;7350;51.208;4.238;2023-02-12T09:11:04;5.28;;;4.88;;
14526;SDS011;7350;51.208;4.238;2023-02-12T09:13:32;5.85;;;5.05;;
14526;SDS011;7350;51.208;4.238;2023-02-12T09:16:00;4.65;;;4.32;;
14526;SDS011;7350;51.208;4.238;2023-02-12T09:18:29;5.13;;;4.63;;
14526;SDS011;7350;51.208;4.238;2023-02-12T09:20:59;5.00;;;4.57;;
14526;SDS011;7350;51.208;4.238;2023-02-12T09:23:27;5.25;;;4.82;;
14526;SDS011;7350;51.208;4.238;2023-02-12T09:25:55;5.00;;;4.32;;
14526;SDS011;7350;51.208;4.238;2023-02-12T09:28:22;4.80;;;4.38;;
14526;SDS011;7350;51.208;4.238;2023-02-12T09:30:49;5.47;;;5.07;;
14526;SDS011;7350;51.208;4.238;2023-02-12T09:33:16;5.05;;;4.43;;
14526;SDS011;7350;51.208;4.238;2023-02-12T09:35:43;4.40;;;4.07;;
14526;SDS011;7350;51.208;4.238;2023-02-12T09:38:10;4.68;;;4.28;;
14526;SDS011;7350;51.208;4.238;2023-02-12T09:40:38;4.65;;;4.30;;
14526;SDS011;7350;51.208;4.238;2023-02-12T09:43:18;4.60;;;4.20;;
14526;SDS011;7350;51.208;4.238;2023-02-12T09:45:54;4.80;;;4.40;;
14526;SDS011;7350;51.208;4.238;2023-02-12T09:48:31;5.05;;;4.60;;
14526;SDS011;7350;51.208;4.238;2023-02-12T09:51:08;4.70;;;4.25;;
14526;SDS011;7350;51.208;4.238;2023-02-12T09:53:37;4.90;;;4.50;;
14526;SDS011;7350;51.208;4.238;2023-02-12T09:56:13;4.13;;;3.70;;
14526;SDS011;7350;51.208;4.238;2023-02-12T09:58:44;4.15;;;3.75;;
14526;SDS011;7350;51.208;4.238;2023-02-12T10:01:14;4.78;;;4.38;;
14526;SDS011;7350;51.208;4.238;2023-02-12T10:03:43;4.75;;;4.35;;
14526;SDS011;7350;51.208;4.238;2023-02-12T10:06:13;4.28;;;3.90;;
14526;SDS011;7350;51.208;4.238;2023-02-12T10:08:45;3.80;;;3.50;;
14526;SDS011;7350;51.208;4.238;2023-02-12T10:11:28;4.50;;;4.10;;
14526;SDS011;7350;51.208;4.238;2023-02-12T10:14:17;4.63;;;4.22;;
14526;SDS011;7350;51.208;4.238;2023-02-12T10:17:09;4.97;;;3.83;;
14526;SDS011;7350;51.208;4.238;2023-02-12T10:19:50;3.95;;;3.50;;
14526;SDS011;7350;51.208;4.238;2023-02-12T10:22:28;3.70;;;3.40;;
14526;SDS011;7350;51.208;4.238;2023-02-12T10:25:07;8.32;;;3.70;;
14526;SDS011;7350;51.208;4.238;2023-02-12T10:27:47;4.13;;;3.67;;
14526;SDS011;7350;51.208;4.238;2023-02-12T10:30:19;5.10;;;3.70;;
14526;SDS011;7350;51.208;4.238;2023-02-12T10:32:50;6.35;;;3.70;;
14526;SDS011;7350;51.208;4.238;2023-02-12T10:35:24;6.57;;;3.83;;
14526;SDS011;7350;51.208;4.238;2023-02-12T10:37:53;4.93;;;3.65;;
14526;SDS011;7350;51.208;4.238;2023-02-12T10:40:24;3.67;;;3.22;;
14526;SDS011;7350;51.208;4.238;2023-02-12T10:42:54;4.88;;;3.90;;
14526;SDS011;7350;51.208;4.238;2023-02-12T10:45:25;8.27;;;3.35;;
14526;SDS011;7350;51.208;4.238;2023-02-12T10:48:02;14.85;;;3.95;;
14526;SDS011;7350;51.208;4.238;2023-02-12T10:50:36;5.57;;;3.70;;
14526;SDS011;7350;51.208;4.238;2023-02-12T10:53:20;4.15;;;3.75;;
14526;SDS011;7350;51.208;4.238;2023-02-12T10:55:48;4.68;;;3.70;;
14526;SDS011;7350;51.208;4.238;2023-02-12T10:58:17;4.53;;;3.83;;
14526;SDS011;7350;51.208;4.238;2023-02-12T11:00:48;3.72;;;3.17;;
14526;SDS011;7350;51.208;4.238;2023-02-12T11:03:23;5.57;;;3.97;;
14526;SDS011;7350;51.208;4.238;2023-02-12T11:05:54;4.28;;;3.88;;
14526;SDS011;7350;51.208;4.238;2023-02-12T11:08:30;4.25;;;3.53;;
14526;SDS011;7350;51.208;4.238;2023-02-12T11:11:03;4.32;;;3.50;;
14526;SDS011;7350;51.208;4.238;2023-02-12T11:13:32;5.80;;;4.20;;
14526;SDS011;7350;51.208;4.238;2023-02-12T11:16:02;5.18;;;3.75;;
14526;SDS011;7350;51.208;4.238;2023-02-12T11:18:29;5.32;;;3.75;;
14526;SDS011;7350;51.208;4.238;2023-02-12T11:20:59;5.20;;;3.63;;
14526;SDS011;7350;51.208;4.238;2023-02-12T11:23:28;5.15;;;3.60;;
14526;SDS011;7350;51.208;4.238;2023-02-12T11:25:57;4.30;;;3.60;;
14526;SDS011;7350;51.208;4.238;2023-02-12T11:28:26;4.65;;;3.78;;
14526;SDS011;7350;51.208;4.238;2023-02-12T11:30:55;5.55;;;3.85;;
14526;SDS011;7350;51.208;4.238;2023-02-12T11:33:26;4.13;;;3.72;;
14526;SDS011;7350;51.208;4.238;2023-02-12T11:35:56;5.00;;;3.47;;
14526;SDS011;7350;51.208;4.238;2023-02-12T11:38:27;6.18;;;3.72;;
14526;SDS011;7350;51.208;4.238;2023-02-12T11:41:01;4.18;;;3.53;;
14526;SDS011;7350;51.208;4.238;2023-02-12T11:43:33;4.15;;;3.67;;
14526;SDS011;7350;51.208;4.238;2023-02-12T11:46:03;4.88;;;3.72;;
14526;SDS011;7350;51.208;4.238;2023-02-12T11:48:34;3.67;;;3.38;;
14526;SDS011;7350;51.208;4.238;2023-02-12T11:51:04;4.00;;;3.60;;
14526;SDS011;7350;51.208;4.238;2023-02-12T11:53:34;5.03;;;3.90;;
14526;SDS011;7350;51.208;4.238;2023-02-12T11:56:05;3.70;;;3.40;;
14526;SDS011;7350;51.208;4.238;2023-02-12T11:58:34;3.88;;;3.47;;
14526;SDS011;7350;51.208;4.238;2023-02-12T12:01:05;3.70;;;3.40;;
14526;SDS011;7350;51.208;4.238;2023-02-12T12:03:40;3.95;;;3.60;;
14526;SDS011;7350;51.208;4.238;2023-02-12T12:06:19;5.88;;;3.67;;
14526;SDS011;7350;51.208;4.238;2023-02-12T12:09:01;4.68;;;3.80;;
14526;SDS011;7350;51.208;4.238;2023-02-12T12:11:34;6.05;;;3.83;;
14526;SDS011;7350;51.208;4.238;2023-02-12T12:14:07;4.30;;;3.90;;
14526;SDS011;7350;51.208;4.238;2023-02-12T12:16:40;5.80;;;4.25;;
14526;SDS011;7350;51.208;4.238;2023-02-12T12:19:33;4.05;;;3.72;;
14526;SDS011;7350;51.208;4.238;2023-02-12T12:25:09;4.03;;;3.28;;
14526;SDS011;7350;51.208;4.238;2023-02-12T12:27:44;4.40;;;4.00;;
14526;SDS011;7350;51.208;4.238;2023-02-12T12:30:36;5.13;;;3.95;;
14526;SDS011;7350;51.208;4.238;2023-02-12T12:33:23;4.80;;;4.40;;
14526;SDS011;7350;51.208;4.238;2023-02-12T12:36:02;5.82;;;4.60;;
14526;SDS011;7350;51.208;4.238;2023-02-12T12:38:50;5.45;;;4.45;;
14526;SDS011;7350;51.208;4.238;2023-02-12T12:41:26;5.95;;;4.03;;
14526;SDS011;7350;51.208;4.238;2023-02-12T12:44:05;6.88;;;4.13;;
14526;SDS011;7350;51.208;4.238;2023-02-12T12:46:50;5.22;;;4.05;;
14526;SDS011;7350;51.208;4.238;2023-02-12T12:49:37;5.10;;;4.57;;
14526;SDS011;7350;51.208;4.238;2023-02-12T12:52:28;4.68;;;4.28;;
14526;SDS011;7350;51.208;4.238;2023-02-12T12:55:37;6.20;;;4.38;;
14526;SDS011;7350;51.208;4.238;2023-02-12T12:58:21;5.65;;;4.07;;
14526;SDS011;7350;51.208;4.238;2023-02-12T13:01:02;4.53;;;4.15;;
14526;SDS011;7350;51.208;4.238;2023-02-12T13:03:47;4.68;;;4.28;;
14526;SDS011;7350;51.208;4.238;2023-02-12T13:06:37;5.57;;;4.05;;
14526;SDS011;7350;51.208;4.238;2023-02-12T13:09:17;6.45;;;4.53;;
14526;SDS011;7350;51.208;4.238;2023-02-12T13:12:00;5.10;;;4.60;;
14526;SDS011;7350;51.208;4.238;2023-02-12T13:14:40;7.03;;;4.22;;
14526;SDS011;7350;51.208;4.238;2023-02-12T13:17:12;5.70;;;4.90;;
14526;SDS011;7350;51.208;4.238;2023-02-12T13:19:50;7.40;;;4.65;;
14526;SDS011;7350;51.208;4.238;2023-02-12T13:22:25;4.68;;;4.10;;
14526;SDS011;7350;51.208;4.238;2023-02-12T13:25:00;5.20;;;4.70;;
14526;SDS011;7350;51.208;4.238;2023-02-12T13:27:39;5.18;;;4.68;;
14526;SDS011;7350;51.208;4.238;2023-02-12T13:30:15;5.18;;;4.63;;
14526;SDS011;7350;51.208;4.238;2023-02-12T13:32:46;4.82;;;4.43;;
14526;SDS011;7350;51.208;4.238;2023-02-12T13:35:18;6.72;;;4.88;;
14526;SDS011;7350;51.208;4.238;2023-02-12T13:37:47;5.05;;;4.63;;
14526;SDS011;7350;51.208;4.238;2023-02-12T13:40:19;6.03;;;5.00;;
14526;SDS011;7350;51.208;4.238;2023-02-12T13:42:52;5.20;;;4.70;;
14526;SDS011;7350;51.208;4.238;2023-02-12T13:45:26;5.82;;;5.00;;
14526;SDS011;7350;51.208;4.238;2023-02-12T13:48:14;5.75;;;5.18;;
14526;SDS011;7350;51.208;4.238;2023-02-12T13:50:55;5.80;;;4.90;;
14526;SDS011;7350;51.208;4.238;2023-02-12T13:53:30;4.88;;;4.47;;
14526;SDS011;7350;51.208;4.238;2023-02-12T13:56:14;5.13;;;4.63;;
14526;SDS011;7350;51.208;4.238;2023-02-12T13:58:52;5.32;;;4.82;;
14526;SDS011;7350;51.208;4.238;2023-02-12T14:01:33;5.47;;;4.40;;
14526;SDS011;7350;51.208;4.238;2023-02-12T14:04:19;5.25;;;4.75;;
14526;SDS011;7350;51.208;4.238;2023-02-12T14:06:57;5.20;;;4.70;;
14526;SDS011;7350;51.208;4.238;2023-02-12T14:09:33;4.93;;;4.45;;
14526;SDS011;7350;51.208;4.238;2023-02-12T14:12:04;5.47;;;4.97;;
14526;SDS011;7350;51.208;4.238;2023-02-12T14:14:34;4.93;;;4.43;;
14526;SDS011;7350;51.208;4.238;2023-02-12T14:20:19;5.32;;;4.82;;
14526;SDS011;7350;51.208;4.238;2023-02-12T14:25:47;5.85;;;4.70;;
14526;SDS011;7350;51.208;4.238;2023-02-12T14:28:26;5.50;;;5.00;;
14526;SDS011;7350;51.208;4.238;2023-02-12T14:31:31;5.55;;;5.05;;
14526;SDS011;7350;51.208;4.238;2023-02-12T14:37:09;5.30;;;4.90;;
14526;SDS011;7350;51.208;4.238;2023-02-12T14:39:40;6.38;;;5.00;;
14526;SDS011;7350;51.208;4.238;2023-02-12T14:45:30;6.50;;;4.90;;
14526;SDS011;7350;51.208;4.238;2023-02-12T14:47:58;5.32;;;4.82;;
14526;SDS011;7350;51.208;4.238;2023-02-12T14:50:30;5.30;;;4.90;;
14526;SDS011;7350;51.208;4.238;2023-02-12T14:53:05;5.60;;;5.10;;
14526;SDS011;7350;51.208;4.238;2023-02-12T14:55:47;5.03;;;4.63;;
14526;SDS011;7350;51.208;4.238;2023-02-12T14:58:16;5.60;;;5.10;;
14526;SDS011;7350;51.208;4.238;2023-02-12T15:00:47;5.10;;;4.70;;
14526;SDS011;7350;51.208;4.238;2023-02-12T15:03:25;5.32;;;4.80;;
14526;SDS011;7350;51.208;4.238;2023-02-12T15:06:00;5.70;;;5.20;;
14526;SDS011;7350;51.208;4.238;2023-02-12T15:08:34;6.05;;;5.28;;
14526;SDS011;7350;51.208;4.238;2023-02-12T15:11:11;5.22;;;4.72;;
14526;SDS011;7350;51.208;4.238;2023-02-12T15:13:47;5.60;;;5.10;;
14526;SDS011;7350;51.208;4.238;2023-02-12T15:16:22;5.28;;;4.78;;
14526;SDS011;7350;51.208;4.238;2023-02-12T15:18:55;6.15;;;4.97;;
14526;SDS011;7350;51.208;4.238;2023-02-12T15:21:27;6.82;;;5.68;;
14526;SDS011;7350;51.208;4.238;2023-02-12T15:23:59;5.57;;;5.07;;
14526;SDS011;7350;51.208;4.238;2023-02-12T15:26:30;6.07;;;5.47;;
14526;SDS011;7350;51.208;4.238;2023-02-12T15:29:00;6.45;;;5.72;;
14526;SDS011;7350;51.208;4.238;2023-02-12T15:31:30;6.13;;;5.53;;
14526;SDS011;7350;51.208;4.238;2023-02-12T15:34:00;6.68;;;6.00;;
14526;SDS011;7350;51.208;4.238;2023-02-12T15:36:29;6.18;;;5.68;;
14526;SDS011;7350;51.208;4.238;2023-02-12T15:38:59;5.97;;;5.47;;
14526;SDS011;7350;51.208;4.238;2023-02-12T15:41:36;6.15;;;5.57;;
14526;SDS011;7350;51.208;4.238;2023-02-12T15:44:17;6.57;;;5.50;;
14526;SDS011;7350;51.208;4.238;2023-02-12T15:46:54;6.28;;;5.78;;